createdAt,value
2023-03-15T00:00:23.898Z,69.32
2023-03-15T00:01:27.801Z,69.23
2023-03-15T00:02:30.061Z,69.97
2023-03-15T00:03:37.268Z,70.17
2023-03-15T00:04:41.943Z,70.11
2023-03-15T00:05:45.138Z,69.38
2023-03-15T00:06:49.016Z,69.03
2023-03-15T00:07:51.551Z,67.87
2023-03-15T00:08:54.963Z,68.66
2023-03-15T00:09:57.848Z,68.58
2023-03-15T00:11:02.967Z,68.73
2023-03-15T00:12:06.073Z,68.92
2023-03-15T00:13:09.978Z,70.00
2023-03-15T00:14:12.441Z,70.06
2023-03-15T00:15:16.678Z,70.85
2023-03-15T00:16:19.622Z,70.56
2023-03-15T00:17:23.663Z,70.38
2023-03-15T00:18:26.860Z,70.00
2023-03-15T00:19:30.384Z,69.40
2023-03-15T00:20:32.746Z,68.81
2023-03-15T00:21:36.407Z,68.93
2023-03-15T00:22:38.947Z,69.59
2023-03-15T00:23:42.334Z,69.17
2023-03-15T00:24:45.200Z,69.78
2023-03-15T00:25:50.509Z,69.55
2023-03-15T00:26:54.627Z,69.26
2023-03-15T00:27:58.088Z,69.29
2023-03-15T00:29:00.612Z,69.49
2023-03-15T00:30:03.979Z,69.34
2023-03-15T00:31:09.566Z,68.72
2023-03-15T00:32:13.077Z,68.29
2023-03-15T00:33:16.780Z,68.59
2023-03-15T00:34:24.631Z,67.75
2023-03-15T00:35:27.151Z,67.95
2023-03-15T00:36:30.745Z,68.16
2023-03-15T00:37:37.735Z,68.80
2023-03-15T00:38:44.076Z,69.14
2023-03-15T00:39:47.123Z,70.10
2023-03-15T00:40:50.623Z,70.32
2023-03-15T00:41:57.081Z,71.12
2023-03-15T00:43:00.708Z,71.44
2023-03-15T00:44:04.331Z,70.52
2023-03-15T00:45:09.140Z,69.63
2023-03-15T00:46:12.319Z,71.48
2023-03-15T00:47:16.297Z,70.56
2023-03-15T00:48:18.523Z,70.35
2023-03-15T00:49:21.709Z,70.29
2023-03-15T00:50:24.580Z,71.22
2023-03-15T00:51:27.858Z,71.67
2023-03-15T00:52:36.024Z,71.92
2023-03-15T00:53:41.046Z,70.96
2023-03-15T00:54:44.389Z,69.98
2023-03-15T00:55:48.083Z,69.64
2023-03-15T00:56:50.442Z,70.17
2023-03-15T00:57:55.117Z,70.15
2023-03-15T00:58:58.554Z,69.78
2023-03-15T01:00:04.949Z,70.38
2023-03-15T01:01:09.260Z,70.80
2023-03-15T01:02:12.945Z,70.76
2023-03-15T01:03:15.142Z,69.90
2023-03-15T01:04:18.390Z,70.00
2023-03-15T01:05:21.238Z,69.63
2023-03-15T01:06:26.708Z,69.82
2023-03-15T01:07:29.235Z,69.35
2023-03-15T01:08:32.517Z,70.01
2023-03-15T01:09:34.726Z,70.97
2023-03-15T01:10:38.241Z,71.88
2023-03-15T01:11:41.537Z,71.86
2023-03-15T01:12:44.745Z,71.74
2023-03-15T01:13:49.344Z,71.28
2023-03-15T01:14:52.060Z,71.25
2023-03-15T01:15:55.363Z,71.49
2023-03-15T01:16:58.266Z,71.18
2023-03-15T01:18:01.555Z,70.45
2023-03-15T01:19:03.958Z,70.24
2023-03-15T01:20:09.079Z,70.42
2023-03-15T01:21:13.258Z,70.14
2023-03-15T01:22:16.711Z,70.58
2023-03-15T01:23:19.127Z,70.57
2023-03-15T01:24:22.460Z,71.40
2023-03-15T01:25:24.774Z,71.33
2023-03-15T01:26:28.127Z,71.61
2023-03-15T01:27:31.424Z,70.80
2023-03-15T01:28:34.292Z,70.74
2023-03-15T01:29:38.973Z,70.45
2023-03-15T01:30:41.507Z,70.87
2023-03-15T01:31:44.766Z,71.28
2023-03-15T01:32:47.140Z,71.88
2023-03-15T01:33:50.282Z,71.96
2023-03-15T01:34:53.784Z,70.92
2023-03-15T01:36:01.012Z,71.34
2023-03-15T01:37:04.560Z,71.26
2023-03-15T01:38:06.741Z,71.03
2023-03-15T01:39:09.990Z,71.91
2023-03-15T01:40:13.998Z,71.73
2023-03-15T01:41:18.368Z,71.08
2023-03-15T01:42:20.702Z,71.19
2023-03-15T01:43:25.604Z,71.52
2023-03-15T01:44:51.978Z,71.51
2023-03-15T01:46:16.249Z,71.39
2023-03-15T01:47:19.205Z,72.09
2023-03-15T01:48:27.208Z,71.30
2023-03-15T01:49:34.546Z,71.96
2023-03-15T01:50:36.799Z,71.81
2023-03-15T01:51:46.285Z,71.91
2023-03-15T01:52:48.830Z,71.49
2023-03-15T01:53:57.516Z,71.15
2023-03-15T01:55:04.155Z,70.81
2023-03-15T01:56:08.555Z,71.04
2023-03-15T01:57:16.112Z,70.51
2023-03-15T01:58:20.068Z,70.11
2023-03-15T01:59:28.631Z,69.76
2023-03-15T02:00:32.570Z,70.19
2023-03-15T02:01:37.988Z,70.08
2023-03-15T02:02:46.590Z,69.48
2023-03-15T02:03:57.882Z,70.18
2023-03-15T02:05:04.734Z,69.85
2023-03-15T02:06:10.921Z,70.31
2023-03-15T02:07:17.072Z,70.78
2023-03-15T02:08:22.945Z,69.92
2023-03-15T02:09:31.939Z,69.66
2023-03-15T02:10:37.950Z,69.21
2023-03-15T02:11:41.853Z,69.75
2023-03-15T02:12:48.006Z,70.13
2023-03-15T02:13:52.807Z,70.52
2023-03-15T02:14:56.309Z,70.38
2023-03-15T02:16:00.557Z,70.08
2023-03-15T02:17:04.394Z,69.74
2023-03-15T02:18:06.642Z,70.46
2023-03-15T02:19:21.288Z,71.20
2023-03-15T02:20:35.647Z,70.15
2023-03-15T02:21:46.605Z,71.36
2023-03-15T02:22:55.142Z,71.00
2023-03-15T02:24:07.859Z,70.96
2023-03-15T02:25:17.544Z,70.35
2023-03-15T02:26:27.125Z,70.34
2023-03-15T02:27:32.573Z,70.48
2023-03-15T02:28:36.625Z,70.70
2023-03-15T02:29:39.012Z,71.20
2023-03-15T02:30:42.741Z,71.54
2023-03-15T02:31:45.435Z,71.27
2023-03-15T02:32:48.770Z,71.03
2023-03-15T02:33:52.747Z,70.64
2023-03-15T02:34:56.166Z,69.90
2023-03-15T02:36:08.988Z,70.09
2023-03-15T02:37:12.190Z,71.21
2023-03-15T02:38:14.475Z,72.14
2023-03-15T02:39:19.910Z,71.75
2023-03-15T02:40:24.288Z,71.87
2023-03-15T02:41:31.994Z,72.20
2023-03-15T02:42:35.572Z,71.99
2023-03-15T02:43:40.662Z,72.02
2023-03-15T02:44:45.328Z,71.80
2023-03-15T02:45:49.225Z,71.85
2023-03-15T02:46:54.914Z,71.16
2023-03-15T02:47:58.617Z,70.30
2023-03-15T02:49:01.891Z,70.73
2023-03-15T02:50:05.534Z,70.70
2023-03-15T02:51:07.770Z,71.46
2023-03-15T02:52:12.283Z,71.57
2023-03-15T02:53:14.553Z,72.45
2023-03-15T02:54:17.760Z,72.58
2023-03-15T02:55:20.026Z,71.93
2023-03-15T02:56:24.666Z,72.40
2023-03-15T02:57:27.244Z,72.67
2023-03-15T02:58:32.469Z,72.74
2023-03-15T02:59:34.683Z,71.80
2023-03-15T03:00:37.854Z,71.33
2023-03-15T03:01:40.250Z,71.92
2023-03-15T03:02:45.329Z,71.37
2023-03-15T03:03:48.122Z,71.73
2023-03-15T03:04:52.824Z,71.01
2023-03-15T03:05:54.983Z,71.45
2023-03-15T03:06:58.268Z,71.78
2023-03-15T03:08:02.894Z,72.61
2023-03-15T03:09:06.180Z,72.73
2023-03-15T03:10:14.091Z,73.45
2023-03-15T03:11:17.991Z,73.42
2023-03-15T03:12:20.183Z,74.52
2023-03-15T03:13:24.019Z,74.98
2023-03-15T03:14:27.899Z,75.79
2023-03-15T03:15:31.131Z,75.25
2023-03-15T03:16:33.300Z,75.00
2023-03-15T03:17:37.592Z,75.03
2023-03-15T03:18:40.068Z,74.50
2023-03-15T03:19:43.545Z,74.16
2023-03-15T03:20:46.223Z,74.36
2023-03-15T03:21:49.524Z,74.48
2023-03-15T03:22:56.000Z,75.05
2023-03-15T03:23:59.400Z,75.98
2023-03-15T03:25:01.639Z,76.11
2023-03-15T03:26:05.451Z,75.34
2023-03-15T03:27:08.013Z,75.28
2023-03-15T03:28:11.259Z,74.75
2023-03-15T03:29:17.042Z,74.85
2023-03-15T03:30:21.966Z,74.49
2023-03-15T03:31:26.012Z,74.94
2023-03-15T03:32:29.366Z,75.69
2023-03-15T03:33:31.804Z,75.82
2023-03-15T03:34:35.361Z,75.92
2023-03-15T03:35:37.693Z,76.30
2023-03-15T03:36:41.031Z,76.14
2023-03-15T03:37:43.406Z,76.97
2023-03-15T03:38:48.147Z,77.45
2023-03-15T03:39:50.473Z,77.04
2023-03-15T03:40:53.647Z,76.32
2023-03-15T03:41:56.075Z,76.62
2023-03-15T03:42:59.626Z,76.17
2023-03-15T03:44:01.759Z,76.62
2023-03-15T03:45:05.473Z,76.07
2023-03-15T03:46:09.306Z,75.81
2023-03-15T03:47:12.897Z,76.52
2023-03-15T03:48:15.287Z,76.78
2023-03-15T03:49:18.601Z,77.21
2023-03-15T03:50:21.228Z,77.07
2023-03-15T03:51:24.479Z,77.09
2023-03-15T03:52:26.760Z,76.53
2023-03-15T03:53:30.233Z,76.30
2023-03-15T03:54:32.452Z,75.85
2023-03-15T03:55:35.774Z,76.18
2023-03-15T03:56:39.239Z,76.42
2023-03-15T03:57:42.800Z,76.48
2023-03-15T03:58:45.090Z,75.87
2023-03-15T03:59:48.466Z,75.90
2023-03-15T04:00:54.369Z,76.02
2023-03-15T04:01:59.139Z,76.03
2023-03-15T04:03:02.177Z,75.96
2023-03-15T04:04:05.604Z,76.01
2023-03-15T04:05:08.425Z,76.03
2023-03-15T04:06:11.722Z,76.14
2023-03-15T04:07:15.390Z,75.74
2023-03-15T04:08:20.941Z,75.24
2023-03-15T04:09:25.117Z,74.54
2023-03-15T04:10:28.661Z,74.63
2023-03-15T04:11:31.056Z,74.86
2023-03-15T04:12:34.353Z,75.11
2023-03-15T04:13:36.571Z,75.35
2023-03-15T04:14:39.847Z,75.35
2023-03-15T04:15:42.291Z,76.11
2023-03-15T04:16:45.676Z,76.59
2023-03-15T04:17:49.637Z,76.08
2023-03-15T04:18:56.660Z,75.59
2023-03-15T04:19:59.376Z,75.47
2023-03-15T04:21:02.615Z,74.70
2023-03-15T04:22:06.930Z,74.59
2023-03-15T04:23:10.386Z,74.98
2023-03-15T04:24:12.503Z,75.05
2023-03-15T04:25:15.844Z,74.48
2023-03-15T04:26:18.702Z,74.04
2023-03-15T04:27:22.081Z,73.84
2023-03-15T04:28:24.398Z,73.21
2023-03-15T04:29:27.807Z,72.82
2023-03-15T04:30:30.803Z,72.86
2023-03-15T04:31:38.396Z,72.72
2023-03-15T04:32:42.608Z,72.35
2023-03-15T04:33:47.287Z,72.82
2023-03-15T04:34:51.556Z,73.43
2023-03-15T04:35:55.283Z,74.84
2023-03-15T04:36:57.888Z,74.87
2023-03-15T04:38:01.148Z,75.05
2023-03-15T04:39:05.329Z,75.12
2023-03-15T04:40:10.391Z,75.37
2023-03-15T04:41:12.894Z,74.91
2023-03-15T04:42:16.087Z,75.74
2023-03-15T04:43:18.304Z,75.69
2023-03-15T04:44:21.832Z,75.87
2023-03-15T04:45:24.550Z,75.58
2023-03-15T04:46:27.941Z,75.31
2023-03-15T04:47:30.186Z,75.27
2023-03-15T04:48:33.475Z,75.71
2023-03-15T04:49:37.369Z,76.56
2023-03-15T04:50:40.839Z,76.10
2023-03-15T04:51:43.060Z,75.27
2023-03-15T04:52:46.465Z,75.96
2023-03-15T04:53:48.700Z,76.28
2023-03-15T04:54:52.319Z,75.95
2023-03-15T04:55:54.689Z,75.84
2023-03-15T04:56:58.413Z,75.82
2023-03-15T04:58:00.674Z,76.20
2023-03-15T04:59:04.902Z,76.10
2023-03-15T05:00:10.179Z,77.22
2023-03-15T05:01:14.400Z,76.94
2023-03-15T05:02:16.703Z,76.29
2023-03-15T05:03:20.484Z,76.75
2023-03-15T05:04:23.154Z,76.57
2023-03-15T05:05:29.425Z,76.80
2023-03-15T05:06:31.719Z,75.80
2023-03-15T05:07:35.940Z,75.02
2023-03-15T05:08:38.346Z,74.80
2023-03-15T05:09:42.026Z,74.10
2023-03-15T05:10:44.739Z,75.50
2023-03-15T05:11:48.694Z,76.10
2023-03-15T05:12:51.409Z,76.57
2023-03-15T05:13:54.875Z,76.25
2023-03-15T05:14:57.924Z,75.55
2023-03-15T05:16:01.206Z,75.20
2023-03-15T05:17:04.181Z,75.41
2023-03-15T05:18:07.557Z,74.83
2023-03-15T05:19:11.321Z,74.96
2023-03-15T05:20:15.739Z,75.00
2023-03-15T05:21:19.356Z,75.72
2023-03-15T05:22:25.738Z,76.18
2023-03-15T05:23:28.090Z,75.66
2023-03-15T05:24:31.455Z,75.95
2023-03-15T05:25:34.079Z,76.15
2023-03-15T05:26:37.340Z,76.52
2023-03-15T05:27:39.735Z,76.80
2023-03-15T05:28:45.432Z,76.37
2023-03-15T05:29:47.902Z,75.73
2023-03-15T05:30:52.215Z,75.51
2023-03-15T05:31:54.513Z,75.94
2023-03-15T05:32:57.959Z,75.94
2023-03-15T05:34:04.454Z,76.00
2023-03-15T05:35:10.091Z,76.48
2023-03-15T05:36:14.708Z,76.52
2023-03-15T05:37:18.330Z,76.03
2023-03-15T05:38:26.649Z,76.23
2023-03-15T05:39:29.964Z,76.44
2023-03-15T05:40:33.507Z,76.09
2023-03-15T05:41:35.836Z,76.42
2023-03-15T05:42:39.305Z,77.01
2023-03-15T05:43:41.719Z,76.50
2023-03-15T05:44:44.903Z,76.86
2023-03-15T05:45:48.878Z,76.73
2023-03-15T05:46:52.252Z,77.20
2023-03-15T05:47:55.673Z,77.21
2023-03-15T05:48:58.555Z,76.89
2023-03-15T05:50:01.827Z,75.88
2023-03-15T05:51:04.184Z,76.19
2023-03-15T05:52:07.663Z,75.88
2023-03-15T05:53:11.426Z,76.33
2023-03-15T05:54:14.711Z,76.79
2023-03-15T05:55:17.494Z,76.58
2023-03-15T05:56:20.817Z,76.70
2023-03-15T05:57:23.273Z,77.33
2023-03-15T05:58:26.610Z,76.81
2023-03-15T05:59:28.823Z,76.68
2023-03-15T06:00:32.469Z,76.59
2023-03-15T06:01:34.679Z,76.66
2023-03-15T06:02:37.980Z,77.27
2023-03-15T06:03:40.247Z,77.52
2023-03-15T06:04:43.711Z,77.20
2023-03-15T06:05:46.902Z,76.36
2023-03-15T06:06:49.084Z,76.56
2023-03-15T06:07:52.621Z,76.31
2023-03-15T06:08:56.466Z,75.85
2023-03-15T06:10:00.133Z,76.39
2023-03-15T06:11:02.373Z,75.59
2023-03-15T06:12:06.611Z,75.82
2023-03-15T06:13:08.950Z,75.89
2023-03-15T06:14:12.391Z,74.73
2023-03-15T06:15:14.781Z,75.50
2023-03-15T06:16:18.389Z,75.40
2023-03-15T06:17:20.815Z,75.81
2023-03-15T06:18:24.417Z,76.26
2023-03-15T06:19:26.621Z,76.10
2023-03-15T06:20:31.474Z,76.14
2023-03-15T06:21:33.991Z,76.99
2023-03-15T06:22:37.325Z,76.42
2023-03-15T06:23:39.830Z,76.77
2023-03-15T06:24:44.598Z,76.56
2023-03-15T06:25:47.055Z,76.93
2023-03-15T06:26:50.737Z,76.11
2023-03-15T06:27:54.359Z,75.32
2023-03-15T06:28:56.595Z,75.83
2023-03-15T06:29:59.898Z,76.17
2023-03-15T06:31:07.810Z,76.16
2023-03-15T06:32:11.322Z,75.98
2023-03-15T06:33:13.664Z,75.80
2023-03-15T06:34:16.990Z,75.12
2023-03-15T06:35:19.250Z,74.83
2023-03-15T06:36:23.383Z,74.41
2023-03-15T06:37:35.103Z,74.02
2023-03-15T06:38:38.898Z,73.70
2023-03-15T06:39:42.162Z,74.40
2023-03-15T06:40:46.936Z,73.78
2023-03-15T06:41:49.164Z,74.11
2023-03-15T06:42:52.439Z,74.56
2023-03-15T06:43:54.854Z,74.73
2023-03-15T06:44:58.745Z,74.26
2023-03-15T06:46:02.071Z,74.36
2023-03-15T06:47:04.686Z,74.21
2023-03-15T06:48:08.507Z,73.70
2023-03-15T06:49:11.728Z,73.11
2023-03-15T06:50:14.060Z,72.71
2023-03-15T06:51:17.320Z,73.60
2023-03-15T06:52:19.945Z,74.20
2023-03-15T06:53:24.155Z,73.90
2023-03-15T06:54:26.529Z,73.84
2023-03-15T06:55:29.871Z,73.92
2023-03-15T06:56:37.268Z,73.25
2023-03-15T06:57:41.492Z,73.09
2023-03-15T06:58:45.373Z,73.29
2023-03-15T06:59:49.097Z,74.69
2023-03-15T07:00:51.319Z,74.50
2023-03-15T07:01:54.596Z,73.42
2023-03-15T07:02:56.973Z,74.10
2023-03-15T07:04:01.169Z,74.48
2023-03-15T07:05:04.951Z,74.77
2023-03-15T07:06:07.103Z,73.89
2023-03-15T07:07:10.679Z,73.89
2023-03-15T07:08:13.268Z,73.03
2023-03-15T07:09:16.605Z,74.06
2023-03-15T07:10:19.110Z,74.05
2023-03-15T07:11:22.310Z,73.45
2023-03-15T07:12:27.080Z,72.59
2023-03-15T07:13:30.457Z,72.56
2023-03-15T07:14:34.319Z,72.52
2023-03-15T07:15:38.223Z,72.77
2023-03-15T07:16:40.690Z,71.73
2023-03-15T07:17:44.129Z,70.51
2023-03-15T07:18:47.444Z,70.43
2023-03-15T07:19:56.481Z,70.73
2023-03-15T07:21:00.973Z,70.14
2023-03-15T07:22:03.262Z,70.16
2023-03-15T07:23:06.852Z,69.68
2023-03-15T07:24:09.479Z,70.21
2023-03-15T07:25:12.853Z,70.74
2023-03-15T07:26:15.658Z,70.88
2023-03-15T07:27:19.669Z,69.99
2023-03-15T07:28:24.864Z,70.10
2023-03-15T07:29:28.310Z,69.23
2023-03-15T07:30:30.702Z,68.23
2023-03-15T07:31:34.401Z,68.40
2023-03-15T07:32:36.751Z,67.71
2023-03-15T07:33:41.841Z,66.97
2023-03-15T07:34:44.187Z,66.39
2023-03-15T07:35:47.744Z,67.02
2023-03-15T07:36:51.063Z,67.05
2023-03-15T07:37:54.389Z,66.44
2023-03-15T07:38:57.999Z,66.25
2023-03-15T07:40:01.125Z,66.36
2023-03-15T07:41:05.750Z,65.60
2023-03-15T07:42:09.115Z,64.65
2023-03-15T07:43:12.790Z,64.71
2023-03-15T07:44:16.515Z,64.83
2023-03-15T07:45:20.455Z,64.16
2023-03-15T07:46:23.058Z,63.49
2023-03-15T07:47:26.389Z,62.65
2023-03-15T07:48:31.371Z,61.92
2023-03-15T07:49:34.723Z,61.62
2023-03-15T07:50:38.494Z,61.21
2023-03-15T07:51:42.444Z,60.87
2023-03-15T07:52:44.918Z,60.14
2023-03-15T07:53:48.253Z,59.44
2023-03-15T07:54:50.521Z,58.54
2023-03-15T07:55:54.329Z,59.62
2023-03-15T07:56:56.952Z,59.00
2023-03-15T07:58:01.205Z,58.96
2023-03-15T07:59:04.568Z,59.12
2023-03-15T08:00:13.808Z,57.69
2023-03-15T08:01:16.304Z,57.72
2023-03-15T08:02:19.474Z,57.53
2023-03-15T08:03:22.797Z,56.53
2023-03-15T08:04:26.040Z,56.55
2023-03-15T08:05:29.340Z,55.71
2023-03-15T08:06:32.983Z,54.77
2023-03-15T08:07:36.680Z,54.71
2023-03-15T08:08:40.622Z,54.38
2023-03-15T08:09:44.320Z,54.39
2023-03-15T08:10:48.066Z,55.12
2023-03-15T08:11:50.289Z,54.76
2023-03-15T08:12:53.928Z,55.62
2023-03-15T08:13:56.228Z,54.80
2023-03-15T08:14:59.674Z,55.04
2023-03-15T08:16:05.660Z,54.98
2023-03-15T08:17:13.104Z,56.34
2023-03-15T08:18:16.489Z,56.34
2023-03-15T08:19:18.814Z,54.78
2023-03-15T08:20:22.612Z,54.38
2023-03-15T08:21:25.916Z,53.12
2023-03-15T08:22:28.067Z,52.99
2023-03-15T08:23:31.792Z,53.50
2023-03-15T08:24:34.397Z,54.45
2023-03-15T08:25:41.192Z,54.41
2023-03-15T08:26:44.034Z,54.70
2023-03-15T08:27:47.401Z,54.34
2023-03-15T08:28:49.615Z,53.73
2023-03-15T08:29:53.447Z,52.77
2023-03-15T08:30:55.918Z,52.47
2023-03-15T08:32:00.924Z,52.90
2023-03-15T08:33:05.374Z,53.18
2023-03-15T08:34:09.135Z,53.83
2023-03-15T08:35:15.692Z,53.66
2023-03-15T08:36:19.584Z,53.87
2023-03-15T08:37:23.084Z,53.50
2023-03-15T08:38:26.688Z,53.94
2023-03-15T08:39:28.965Z,54.45
2023-03-15T08:40:32.478Z,56.13
2023-03-15T08:41:36.073Z,56.86
2023-03-15T08:42:40.033Z,56.13
2023-03-15T08:43:43.458Z,55.86
2023-03-15T08:44:45.710Z,54.04
2023-03-15T08:46:00.594Z,54.25
2023-03-15T08:47:06.434Z,52.68
2023-03-15T08:48:08.687Z,52.68
2023-03-15T08:49:12.281Z,53.11
2023-03-15T08:50:16.924Z,53.71
2023-03-15T08:51:19.871Z,53.66
2023-03-15T08:52:23.560Z,55.49
2023-03-15T08:53:27.018Z,55.08
2023-03-15T08:54:30.367Z,56.07
2023-03-15T08:55:33.638Z,54.58
2023-03-15T08:56:36.149Z,55.55
2023-03-15T08:57:39.644Z,54.89
2023-03-15T08:58:43.086Z,55.07
2023-03-15T08:59:45.794Z,54.37
2023-03-15T09:00:50.375Z,54.22
2023-03-15T09:01:52.716Z,53.95
2023-03-15T09:02:57.407Z,53.73
2023-03-15T09:03:59.720Z,54.49
2023-03-15T09:05:03.086Z,55.28
2023-03-15T09:06:06.926Z,54.08
2023-03-15T09:07:09.416Z,53.61
2023-03-15T09:08:14.142Z,54.75
2023-03-15T09:09:17.602Z,54.70
2023-03-15T09:10:22.224Z,54.71
2023-03-15T09:11:24.533Z,54.70
2023-03-15T09:12:28.422Z,53.54
2023-03-15T09:13:32.139Z,52.72
2023-03-15T09:14:34.550Z,52.34
2023-03-15T09:15:37.866Z,52.02
2023-03-15T09:16:40.191Z,52.00
2023-03-15T09:17:44.914Z,50.15
2023-03-15T09:18:49.814Z,49.99
2023-03-15T09:19:52.767Z,50.52
2023-03-15T09:20:57.649Z,51.16
2023-03-15T09:22:15.874Z,50.41
2023-03-15T09:23:23.396Z,50.16
2023-03-15T09:24:26.694Z,51.19
2023-03-15T09:25:30.329Z,52.61
2023-03-15T09:26:32.593Z,51.72
2023-03-15T09:27:35.970Z,50.35
2023-03-15T09:28:39.256Z,50.06
2023-03-15T09:29:41.430Z,50.28
2023-03-15T09:30:44.767Z,50.08
2023-03-15T09:31:48.592Z,49.05
2023-03-15T09:32:51.572Z,48.23
2023-03-15T09:33:56.742Z,46.97
2023-03-15T09:34:59.455Z,48.10
2023-03-15T09:36:02.796Z,48.41
2023-03-15T09:37:05.642Z,47.97
2023-03-15T09:38:09.094Z,47.34
2023-03-15T09:39:11.323Z,46.49
2023-03-15T09:40:19.318Z,47.02
2023-03-15T09:41:40.841Z,48.23
2023-03-15T09:42:57.872Z,47.38
2023-03-15T09:44:12.752Z,47.07
2023-03-15T09:45:26.912Z,46.70
2023-03-15T09:46:34.257Z,46.63
2023-03-15T09:47:48.270Z,45.98
2023-03-15T09:48:54.915Z,46.36
2023-03-15T09:50:06.184Z,48.36
2023-03-15T09:51:15.897Z,47.74
2023-03-15T09:52:34.690Z,47.58
2023-03-15T09:53:44.715Z,49.85
2023-03-15T09:54:52.943Z,48.48
2023-03-15T09:55:55.365Z,47.21
2023-03-15T09:57:02.508Z,46.10
2023-03-15T09:58:11.291Z,46.38
2023-03-15T09:59:17.633Z,46.49
2023-03-15T10:00:25.297Z,49.20
2023-03-15T10:01:31.672Z,50.09
2023-03-15T10:02:35.179Z,49.24
2023-03-15T10:03:47.480Z,47.75
2023-03-15T10:04:53.462Z,48.23
2023-03-15T10:06:02.747Z,46.75
2023-03-15T10:07:13.258Z,47.54
2023-03-15T10:08:18.683Z,47.73
2023-03-15T10:09:24.919Z,47.32
2023-03-15T10:10:34.584Z,47.38
2023-03-15T10:11:46.111Z,48.96
2023-03-15T10:13:00.000Z,49.42
2023-03-15T10:14:15.759Z,50.13
2023-03-15T10:15:38.028Z,49.17
2023-03-15T10:16:43.387Z,50.33
2023-03-15T10:18:01.776Z,49.21
2023-03-15T10:19:15.226Z,49.92
2023-03-15T10:20:22.772Z,48.56
2023-03-15T10:21:39.366Z,49.71
2023-03-15T10:22:48.475Z,50.15
2023-03-15T10:23:55.393Z,50.67
2023-03-15T10:25:02.875Z,50.71
2023-03-15T10:26:08.987Z,49.70
2023-03-15T10:27:20.038Z,49.79
2023-03-15T10:28:25.739Z,49.76
2023-03-15T10:29:30.486Z,49.21
2023-03-15T10:30:34.381Z,49.62
2023-03-15T10:31:44.680Z,49.68
2023-03-15T10:32:53.304Z,51.51
2023-03-15T10:33:58.548Z,52.25
2023-03-15T10:35:02.879Z,52.17
2023-03-15T10:36:14.572Z,51.31
2023-03-15T10:37:19.665Z,52.15
2023-03-15T10:38:24.609Z,52.06
2023-03-15T10:39:27.935Z,52.34
2023-03-15T10:40:49.870Z,53.02
2023-03-15T10:41:53.516Z,52.71
2023-03-15T10:42:58.487Z,51.04
2023-03-15T10:44:04.388Z,52.79
2023-03-15T10:45:15.797Z,52.33
2023-03-15T10:46:24.867Z,51.42
2023-03-15T10:47:28.875Z,50.64
2023-03-15T10:48:32.566Z,50.45
2023-03-15T10:49:37.817Z,50.62
2023-03-15T10:50:41.845Z,51.37
2023-03-15T10:51:47.292Z,51.95
2023-03-15T10:52:52.018Z,51.31
2023-03-15T10:53:57.153Z,50.15
2023-03-15T10:55:04.529Z,49.92
2023-03-15T10:56:22.368Z,50.32
2023-03-15T10:57:28.010Z,50.45
2023-03-15T10:58:42.138Z,50.73
2023-03-15T10:59:58.784Z,50.48
2023-03-15T11:01:07.649Z,51.38
2023-03-15T11:02:21.187Z,51.70
2023-03-15T11:03:26.356Z,51.56
2023-03-15T11:04:33.821Z,51.32
2023-03-15T11:05:43.652Z,51.74
2023-03-15T11:06:49.504Z,50.84
2023-03-15T11:07:57.794Z,50.39
2023-03-15T11:09:11.192Z,51.35
2023-03-15T11:10:23.467Z,51.32
2023-03-15T11:11:26.805Z,50.31
2023-03-15T11:12:33.382Z,49.53
2023-03-15T11:13:37.036Z,50.54
2023-03-15T11:14:42.830Z,50.72
2023-03-15T11:15:54.091Z,51.53
2023-03-15T11:17:00.372Z,50.90
2023-03-15T11:18:03.171Z,50.98
2023-03-15T11:19:14.820Z,51.29
2023-03-15T11:20:30.634Z,50.22
2023-03-15T11:21:36.997Z,50.85
2023-03-15T11:22:40.596Z,50.94
2023-03-15T11:23:49.172Z,49.49
2023-03-15T11:24:54.584Z,49.31
2023-03-15T11:25:57.337Z,48.77
2023-03-15T11:27:03.073Z,49.64
2023-03-15T11:28:06.010Z,50.12
2023-03-15T11:29:17.850Z,50.54
2023-03-15T11:30:27.069Z,50.88
2023-03-15T11:31:31.353Z,49.44
2023-03-15T11:32:35.284Z,49.58
2023-03-15T11:33:44.017Z,47.92
2023-03-15T11:34:54.110Z,49.01
2023-03-15T11:35:58.689Z,49.70
2023-03-15T11:37:08.923Z,49.73
2023-03-15T11:38:18.640Z,50.06
2023-03-15T11:39:33.010Z,50.75
2023-03-15T11:40:41.261Z,51.15
2023-03-15T11:41:51.724Z,49.55
2023-03-15T11:43:01.764Z,48.41
2023-03-15T11:44:15.169Z,50.28
2023-03-15T11:45:22.549Z,49.49
2023-03-15T11:46:30.931Z,49.98
2023-03-15T11:47:44.472Z,50.16
2023-03-15T11:48:51.472Z,50.88
2023-03-15T11:49:56.431Z,51.86
2023-03-15T11:51:00.800Z,51.15
2023-03-15T11:52:05.435Z,50.21
2023-03-15T11:53:12.258Z,50.63
2023-03-15T11:54:16.514Z,52.19
2023-03-15T11:55:25.149Z,51.88
2023-03-15T11:56:45.584Z,51.93
2023-03-15T11:57:51.109Z,52.38
2023-03-15T11:59:08.719Z,52.20
2023-03-15T12:00:37.958Z,51.69
2023-03-15T12:01:48.580Z,52.80
2023-03-15T12:02:55.042Z,52.16
2023-03-15T12:04:44.069Z,52.16
2023-03-15T12:05:49.624Z,51.18
2023-03-15T12:06:54.801Z,51.08
2023-03-15T12:07:59.789Z,50.68
2023-03-15T12:09:03.376Z,50.82
2023-03-15T12:10:47.645Z,51.07
2023-03-15T12:11:50.871Z,49.02
2023-03-15T12:12:59.434Z,49.01
2023-03-15T12:14:07.911Z,48.58
2023-03-15T12:15:52.491Z,50.23
2023-03-15T12:17:39.092Z,49.92
2023-03-15T12:18:45.923Z,50.07
2023-03-15T12:19:48.555Z,50.72
2023-03-15T12:20:58.546Z,50.47
2023-03-15T12:22:02.104Z,50.76
2023-03-15T12:26:34.365Z,50.52
2023-03-15T12:27:41.400Z,51.04
2023-03-15T12:28:53.874Z,51.35
2023-03-15T12:30:02.840Z,50.71
2023-03-15T12:31:07.262Z,51.21
2023-03-15T12:32:15.010Z,49.64
2023-03-15T12:33:20.943Z,50.43
2023-03-15T12:34:31.818Z,51.11
2023-03-15T12:35:41.644Z,51.29
2023-03-15T12:36:49.010Z,51.77
2023-03-15T12:37:54.332Z,51.30
2023-03-15T12:39:02.828Z,52.25
2023-03-15T12:40:39.581Z,52.54
2023-03-15T12:41:46.725Z,52.47
2023-03-15T12:43:13.442Z,51.68
2023-03-15T12:44:24.019Z,50.58
2023-03-15T12:45:46.703Z,50.41
2023-03-15T12:46:58.506Z,50.58
2023-03-15T12:48:24.305Z,50.99
2023-03-15T12:49:37.345Z,51.11
2023-03-15T12:50:52.639Z,52.66
2023-03-15T12:51:59.330Z,52.26
2023-03-15T12:53:06.292Z,51.22
2023-03-15T12:54:17.040Z,50.08
2023-03-15T12:55:19.940Z,49.96
2023-03-15T12:56:41.996Z,51.77
2023-03-15T12:57:50.741Z,51.81
2023-03-15T12:59:00.029Z,52.17
2023-03-15T13:00:10.094Z,52.41
2023-03-15T13:01:16.327Z,51.46
2023-03-15T13:02:43.386Z,51.33
2023-03-15T13:03:46.541Z,51.51
2023-03-15T13:04:50.601Z,51.28
2023-03-15T13:06:04.647Z,52.39
2023-03-15T13:07:24.960Z,51.90
2023-03-15T13:08:33.386Z,53.01
2023-03-15T13:09:48.490Z,52.84
2023-03-15T13:11:11.309Z,51.38
2023-03-15T13:12:20.571Z,52.76
2023-03-15T13:13:47.697Z,53.18
2023-03-15T13:14:59.632Z,53.89
2023-03-15T13:16:16.028Z,52.97
2023-03-15T13:17:33.564Z,53.36
2023-03-15T13:18:48.787Z,53.52
2023-03-15T13:20:11.300Z,53.85
2023-03-15T13:21:21.233Z,54.47
2023-03-15T13:22:33.904Z,54.24
2023-03-15T13:23:39.041Z,55.08
2023-03-15T13:24:54.041Z,53.85
2023-03-15T13:26:15.500Z,54.38
2023-03-15T13:27:34.717Z,54.92
2023-03-15T13:28:42.562Z,53.34
2023-03-15T13:29:46.085Z,53.90
2023-03-15T13:30:52.738Z,53.41
2023-03-15T13:32:04.679Z,54.82
2023-03-15T13:33:18.896Z,54.28
2023-03-15T13:34:24.222Z,54.50
2023-03-15T13:35:27.352Z,54.57
2023-03-15T13:36:41.074Z,53.94
2023-03-15T13:37:45.265Z,53.70
2023-03-15T13:38:51.512Z,54.39
2023-03-15T13:39:58.169Z,55.06
2023-03-15T13:41:07.332Z,55.43
2023-03-15T13:42:20.884Z,55.92
2023-03-15T13:43:28.156Z,55.58
2023-03-15T13:44:33.093Z,55.86
2023-03-15T13:45:37.991Z,55.08
2023-03-15T13:46:43.241Z,54.74
2023-03-15T13:47:46.709Z,54.12
2023-03-15T13:48:51.001Z,54.45
2023-03-15T13:49:54.900Z,55.16
2023-03-15T13:51:07.368Z,56.00
2023-03-15T13:52:15.022Z,54.76
2023-03-15T13:53:28.450Z,53.18
2023-03-15T13:54:41.417Z,51.79
2023-03-15T13:55:51.064Z,52.75
2023-03-15T13:57:03.658Z,52.94
2023-03-15T13:58:07.907Z,53.34
2023-03-15T13:59:12.353Z,54.41
2023-03-15T14:00:19.321Z,54.92
2023-03-15T14:01:24.341Z,55.92
2023-03-15T14:02:37.418Z,55.84
2023-03-15T14:03:43.405Z,54.88
2023-03-15T14:04:52.236Z,53.85
2023-03-15T14:05:58.012Z,54.45
2023-03-15T14:07:23.970Z,55.96
2023-03-15T14:08:30.592Z,55.56
2023-03-15T14:09:32.839Z,54.57
2023-03-15T14:10:37.900Z,53.67